createdAt,value
2018-08-09T00:00:50.190Z,0.00
2018-08-09T00:01:50.170Z,0.00
2018-08-09T00:02:50.152Z,0.00
2018-08-09T00:03:50.134Z,0.00
2018-08-09T00:04:50.114Z,0.00
2018-08-09T00:05:50.099Z,0.00
2018-08-09T00:06:50.081Z,0.00
2018-08-09T00:07:50.062Z,0.00
2018-08-09T00:08:50.044Z,0.00
2018-08-09T00:09:50.027Z,0.00
2018-08-09T00:10:50.010Z,0.00
2018-08-09T00:11:49.992Z,0.00
2018-08-09T00:12:49.973Z,0.00
2018-08-09T00:13:49.955Z,0.00
2018-08-09T00:14:49.939Z,0.00
2018-08-09T00:15:49.921Z,0.00
2018-08-09T00:16:49.901Z,0.00
2018-08-09T00:17:49.888Z,0.00
2018-08-09T00:18:49.865Z,0.00
2018-08-09T00:19:49.847Z,0.00
2018-08-09T00:20:49.835Z,0.00
2018-08-09T00:21:49.812Z,0.00
2018-08-09T00:22:49.793Z,0.00
2018-08-09T00:23:49.839Z,0.00
2018-08-09T00:24:49.760Z,0.00
2018-08-09T00:25:49.739Z,0.00
2018-08-09T00:26:49.722Z,0.00
2018-08-09T00:27:49.703Z,0.00
2018-08-09T00:28:49.684Z,0.00
2018-08-09T00:29:49.667Z,0.00
2018-08-09T00:30:49.650Z,0.00
2018-08-09T00:31:49.631Z,0.00
2018-08-09T00:32:49.613Z,0.00
2018-08-09T00:33:49.595Z,0.00
2018-08-09T00:34:49.576Z,0.00
2018-08-09T00:35:49.560Z,0.00
2018-08-09T00:36:49.542Z,0.00
2018-08-09T00:37:49.523Z,0.00
2018-08-09T00:38:49.504Z,0.00
2018-08-09T00:39:49.488Z,0.00
2018-08-09T00:40:49.468Z,0.00
2018-08-09T00:41:49.449Z,0.00
2018-08-09T00:42:49.433Z,0.00
2018-08-09T00:43:49.413Z,0.00
2018-08-09T00:44:49.395Z,0.00
2018-08-09T00:45:49.378Z,0.00
2018-08-09T00:46:49.360Z,0.00
2018-08-09T00:47:49.341Z,0.00
2018-08-09T00:48:49.322Z,0.00
2018-08-09T00:49:49.305Z,0.00
2018-08-09T00:50:49.286Z,0.00
2018-08-09T00:51:49.268Z,0.00
2018-08-09T00:52:49.249Z,0.00
2018-08-09T00:53:49.232Z,0.00
2018-08-09T00:54:49.214Z,0.00
2018-08-09T00:55:49.196Z,0.00
2018-08-09T00:56:49.176Z,0.00
2018-08-09T00:57:49.163Z,0.00
2018-08-09T00:58:49.141Z,0.00
2018-08-09T00:59:49.121Z,0.00
2018-08-09T01:00:49.104Z,0.00
2018-08-09T01:01:49.086Z,0.00
2018-08-09T01:02:49.067Z,0.00
2018-08-09T01:03:49.050Z,0.00
2018-08-09T01:04:49.031Z,0.00
2018-08-09T01:05:49.013Z,0.00
2018-08-09T01:06:48.995Z,0.00
2018-08-09T01:07:48.976Z,0.00
2018-08-09T01:08:48.956Z,0.00
2018-08-09T01:09:48.939Z,0.00
2018-08-09T01:10:48.922Z,0.00
2018-08-09T01:11:48.904Z,0.00
2018-08-09T01:12:48.884Z,0.00
2018-08-09T01:13:48.868Z,0.00
2018-08-09T01:14:48.847Z,0.00
2018-08-09T01:15:48.831Z,0.00
2018-08-09T01:16:48.811Z,0.00
2018-08-09T01:17:48.792Z,0.00
2018-08-09T01:18:48.773Z,0.00
2018-08-09T01:19:48.757Z,0.00
2018-08-09T01:20:48.736Z,0.00
2018-08-09T01:21:48.719Z,0.00
2018-08-09T01:22:48.700Z,0.00
2018-08-09T01:23:48.681Z,0.00
2018-08-09T01:24:48.666Z,0.00
2018-08-09T01:25:48.645Z,0.00
2018-08-09T01:26:48.627Z,0.00
2018-08-09T01:27:48.608Z,0.00
2018-08-09T01:28:48.589Z,0.00
2018-08-09T01:29:48.572Z,0.00
2018-08-09T01:30:48.554Z,0.00
2018-08-09T01:31:48.536Z,0.00
2018-08-09T01:32:48.519Z,0.00
2018-08-09T01:33:48.496Z,0.00
2018-08-09T01:34:48.478Z,0.00
2018-08-09T01:35:48.463Z,0.00
2018-08-09T01:36:48.441Z,0.00
2018-08-09T01:37:48.423Z,0.00
2018-08-09T01:38:48.403Z,0.00
2018-08-09T01:39:48.389Z,0.00
2018-08-09T01:40:48.367Z,0.00
2018-08-09T01:41:48.348Z,0.00
2018-08-09T01:42:48.329Z,0.00
2018-08-09T01:43:48.310Z,0.00
2018-08-09T01:44:48.294Z,0.00
2018-08-09T01:45:48.272Z,0.00
2018-08-09T01:46:48.255Z,0.00
2018-08-09T01:47:48.236Z,0.00
2018-08-09T01:48:48.217Z,0.00
2018-08-09T01:49:48.198Z,0.00
2018-08-09T01:50:48.181Z,0.00
2018-08-09T01:51:48.160Z,0.00
2018-08-09T01:52:48.141Z,0.00
2018-08-09T01:53:48.123Z,0.00
2018-08-09T01:54:48.107Z,0.00
2018-08-09T01:55:48.086Z,0.00
2018-08-09T01:56:48.073Z,0.00
2018-08-09T01:57:48.048Z,0.00
2018-08-09T01:58:48.031Z,0.00
2018-08-09T01:59:48.012Z,0.00
2018-08-09T02:00:47.997Z,0.00
2018-08-09T02:01:47.975Z,0.00
2018-08-09T02:02:47.955Z,0.00
2018-08-09T02:03:47.936Z,0.00
2018-08-09T02:04:47.969Z,0.00
2018-08-09T02:05:47.897Z,0.00
2018-08-09T02:06:47.881Z,0.00
2018-08-09T02:07:47.919Z,0.00
2018-08-09T02:08:47.841Z,0.00
2018-08-09T02:09:47.823Z,0.00
2018-08-09T02:10:47.811Z,0.00
2018-08-09T02:11:47.785Z,0.00
2018-08-09T02:12:47.766Z,0.00
2018-08-09T02:13:47.747Z,0.00
2018-08-09T02:14:47.727Z,0.00
2018-08-09T02:15:47.710Z,0.00
2018-08-09T02:16:47.689Z,0.00
2018-08-09T02:17:47.672Z,0.00
2018-08-09T02:18:47.653Z,0.00
2018-08-09T02:19:47.633Z,0.00
2018-08-09T02:20:47.615Z,0.00
2018-08-09T02:21:47.595Z,0.00
2018-08-09T02:22:47.576Z,0.00
2018-08-09T02:23:47.558Z,0.00
2018-08-09T02:24:47.537Z,0.00
2018-08-09T02:25:47.519Z,0.00
2018-08-09T02:26:47.500Z,0.00
2018-08-09T02:27:47.480Z,0.00
2018-08-09T02:28:47.462Z,0.00
2018-08-09T02:29:47.443Z,0.00
2018-08-09T02:30:47.424Z,0.00
2018-08-09T02:31:47.404Z,0.00
2018-08-09T02:32:47.386Z,0.00
2018-08-09T02:33:47.365Z,0.00
2018-08-09T02:34:47.347Z,0.00
2018-08-09T02:35:47.328Z,0.00
2018-08-09T02:36:47.310Z,0.00
2018-08-09T02:37:47.289Z,0.00
2018-08-09T02:38:47.271Z,0.00
2018-08-09T02:39:47.251Z,0.00
2018-08-09T02:40:47.230Z,0.00
2018-08-09T02:41:47.212Z,0.00
2018-08-09T02:42:47.196Z,0.00
2018-08-09T02:43:47.175Z,0.00
2018-08-09T02:44:47.156Z,0.00
2018-08-09T02:45:47.135Z,0.00
2018-08-09T02:46:47.132Z,0.00
2018-08-09T02:47:47.098Z,0.00
2018-08-09T02:48:47.078Z,0.00
2018-08-09T02:49:47.061Z,0.00
2018-08-09T02:50:47.040Z,0.00
2018-08-09T02:51:47.025Z,0.00
2018-08-09T02:52:47.000Z,0.00
2018-08-09T02:53:46.981Z,0.00
2018-08-09T02:54:46.962Z,0.00
2018-08-09T02:55:46.954Z,0.00
2018-08-09T02:56:46.924Z,0.00
2018-08-09T02:57:46.907Z,0.00
2018-08-09T02:58:46.887Z,0.00
2018-08-09T02:59:46.871Z,0.00
2018-08-09T03:00:46.847Z,0.00
2018-08-09T03:01:46.828Z,0.00
2018-08-09T03:02:46.807Z,0.00
2018-08-09T03:03:46.788Z,0.00
2018-08-09T03:04:46.769Z,0.00
2018-08-09T03:05:46.749Z,0.00
2018-08-09T03:06:46.732Z,0.00
2018-08-09T03:07:46.710Z,0.00
2018-08-09T03:08:46.690Z,0.00
2018-08-09T03:09:46.674Z,0.00
2018-08-09T03:10:46.651Z,0.00
2018-08-09T03:11:46.631Z,0.00
2018-08-09T03:12:46.611Z,0.00
2018-08-09T03:13:46.594Z,0.00
2018-08-09T03:14:46.573Z,0.00
2018-08-09T03:15:46.556Z,0.00
2018-08-09T03:16:46.535Z,0.00
2018-08-09T03:17:46.515Z,0.00
2018-08-09T03:18:46.496Z,0.00
2018-08-09T03:19:46.475Z,0.00
2018-08-09T03:20:46.457Z,0.00
2018-08-09T03:21:46.436Z,0.00
2018-08-09T03:22:46.418Z,0.00
2018-08-09T03:23:46.397Z,0.00
2018-08-09T03:24:46.376Z,0.00
2018-08-09T03:25:46.359Z,0.00
2018-08-09T03:26:46.339Z,0.00
2018-08-09T03:27:46.320Z,0.00
2018-08-09T03:28:46.301Z,0.00
2018-08-09T03:29:46.279Z,0.00
2018-08-09T03:30:46.260Z,0.00
2018-08-09T03:31:46.242Z,5.63
2018-08-09T03:32:46.221Z,5.63
2018-08-09T03:33:46.202Z,5.63
2018-08-09T03:34:46.182Z,5.63
2018-08-09T03:35:46.162Z,5.63
2018-08-09T03:36:46.142Z,5.63
2018-08-09T03:37:46.123Z,11.25
2018-08-09T03:38:46.101Z,11.25
2018-08-09T03:39:46.084Z,11.25
2018-08-09T03:40:46.063Z,11.25
2018-08-09T03:41:46.044Z,11.25
2018-08-09T03:42:46.026Z,16.88
2018-08-09T03:43:46.005Z,16.88
2018-08-09T03:44:45.983Z,16.88
2018-08-09T03:45:45.963Z,16.88
2018-08-09T03:46:45.945Z,22.50
2018-08-09T03:47:45.924Z,22.50
2018-08-09T03:48:45.905Z,22.50
2018-08-09T03:49:45.885Z,28.13
2018-08-09T03:50:45.867Z,28.13
2018-08-09T03:51:45.845Z,33.75
2018-08-09T03:52:45.828Z,33.75
2018-08-09T03:53:45.806Z,33.75
2018-08-09T03:54:45.789Z,39.38
2018-08-09T03:55:45.776Z,39.38
2018-08-09T03:56:45.761Z,45.00
2018-08-09T03:57:45.727Z,45.00
2018-08-09T03:58:45.705Z,50.63
2018-08-09T03:59:45.719Z,50.63
2018-08-09T04:00:45.668Z,56.25
2018-08-09T04:01:45.648Z,56.25
2018-08-09T04:02:45.627Z,61.88
2018-08-09T04:03:45.608Z,61.88
2018-08-09T04:04:45.590Z,67.50
2018-08-09T04:05:45.570Z,67.50
2018-08-09T04:06:45.549Z,73.13
2018-08-09T04:07:45.529Z,78.75
2018-08-09T04:08:45.510Z,78.75
2018-08-09T04:09:45.488Z,84.38
2018-08-09T04:10:45.468Z,90.00
2018-08-09T04:11:45.516Z,90.00
2018-08-09T04:12:45.429Z,95.63
2018-08-09T04:13:45.408Z,101.25
2018-08-09T04:14:45.389Z,106.88
2018-08-09T04:15:45.369Z,106.88
2018-08-09T04:16:45.353Z,112.50
2018-08-09T04:17:45.331Z,112.50
2018-08-09T04:18:45.311Z,118.13
2018-08-09T04:19:45.297Z,123.75
2018-08-09T04:20:45.270Z,123.75
2018-08-09T04:21:45.250Z,129.38
2018-08-09T04:22:45.230Z,135.00
2018-08-09T04:23:45.211Z,140.63
2018-08-09T04:24:45.191Z,135.00
2018-08-09T04:25:45.171Z,146.25
2018-08-09T04:26:45.151Z,146.25
2018-08-09T04:27:45.133Z,151.88
2018-08-09T04:28:45.112Z,151.88
2018-08-09T04:29:45.093Z,157.50
2018-08-09T04:30:45.078Z,163.13
2018-08-09T04:31:45.059Z,168.75
2018-08-09T04:32:45.037Z,174.38
2018-08-09T04:33:45.016Z,180.00
2018-08-09T04:34:44.995Z,180.00
2018-08-09T04:35:44.975Z,185.63
2018-08-09T04:36:44.957Z,191.25
2018-08-09T04:37:44.935Z,196.88
2018-08-09T04:38:44.915Z,202.50
2018-08-09T04:39:44.898Z,208.13
2018-08-09T04:40:44.877Z,213.75
2018-08-09T04:41:44.857Z,219.38
2018-08-09T04:42:44.840Z,230.63
2018-08-09T04:43:44.820Z,236.25
2018-08-09T04:44:44.799Z,241.88
2018-08-09T04:45:44.778Z,247.50
2018-08-09T04:46:44.762Z,253.13
2018-08-09T04:47:44.742Z,258.75
2018-08-09T04:48:44.721Z,264.38
2018-08-09T04:49:44.700Z,270.00
2018-08-09T04:50:44.682Z,275.63
2018-08-09T04:51:44.662Z,286.88
2018-08-09T04:52:44.644Z,292.50
2018-08-09T04:53:44.623Z,303.75
2018-08-09T04:54:44.607Z,303.75
2018-08-09T04:55:44.587Z,303.75
2018-08-09T04:56:44.566Z,303.75
2018-08-09T04:57:44.547Z,303.75
2018-08-09T04:58:44.531Z,309.38
2018-08-09T04:59:44.508Z,309.38
2018-08-09T05:00:44.491Z,309.38
2018-08-09T05:01:44.472Z,303.75
2018-08-09T05:02:44.452Z,309.38
2018-08-09T05:03:44.435Z,315.00
2018-08-09T05:04:44.413Z,315.00
2018-08-09T05:05:44.396Z,320.63
2018-08-09T05:06:44.381Z,320.63
2018-08-09T05:07:44.359Z,320.63
2018-08-09T05:08:44.339Z,315.00
2018-08-09T05:09:44.322Z,309.38
2018-08-09T05:10:44.303Z,303.75
2018-08-09T05:11:44.289Z,309.38
2018-08-09T05:12:44.266Z,320.63
2018-08-09T05:13:44.245Z,326.25
2018-08-09T05:14:44.228Z,331.88
2018-08-09T05:15:44.209Z,337.50
2018-08-09T05:16:44.191Z,348.75
2018-08-09T05:17:44.172Z,360.00
2018-08-09T05:18:44.153Z,371.25
2018-08-09T05:19:44.135Z,376.88
2018-08-09T05:20:44.115Z,388.13
2018-08-09T05:21:44.098Z,393.75
2018-08-09T05:22:44.080Z,405.00
2018-08-09T05:23:44.063Z,410.63
2018-08-09T05:24:44.041Z,416.25
2018-08-09T05:25:44.022Z,421.88
2018-08-09T05:26:44.005Z,410.63
2018-08-09T05:27:43.986Z,410.63
2018-08-09T05:28:43.967Z,405.00
2018-08-09T05:29:43.948Z,410.63
2018-08-09T05:30:43.930Z,410.63
2018-08-09T05:31:43.912Z,410.63
2018-08-09T05:32:43.894Z,450.00
2018-08-09T05:33:43.875Z,438.75
2018-08-09T05:34:43.858Z,433.13
2018-08-09T05:35:43.840Z,438.75
2018-08-09T05:36:43.820Z,466.88
2018-08-09T05:37:43.805Z,534.38
2018-08-09T05:38:43.785Z,444.38
2018-08-09T05:39:43.767Z,444.38
2018-08-09T05:40:43.749Z,528.75
2018-08-09T05:41:43.730Z,545.63
2018-08-09T05:42:43.713Z,483.75
2018-08-09T05:43:43.697Z,641.25
2018-08-09T05:44:43.681Z,495.00
2018-08-09T05:45:43.659Z,523.13
2018-08-09T05:46:43.642Z,540.00
2018-08-09T05:47:43.627Z,624.38
2018-08-09T05:48:43.608Z,742.50
2018-08-09T05:49:43.589Z,776.25
2018-08-09T05:50:43.577Z,804.38
2018-08-09T05:51:43.556Z,832.50
2018-08-09T05:52:43.656Z,855.00
2018-08-09T05:53:43.523Z,821.25
2018-08-09T05:54:43.506Z,804.38
2018-08-09T05:55:43.489Z,815.63
2018-08-09T05:56:43.472Z,810.00
2018-08-09T05:57:43.457Z,798.75
2018-08-09T05:58:43.440Z,838.13
2018-08-09T05:59:43.426Z,675.00
2018-08-09T06:00:43.411Z,765.00
2018-08-09T06:01:43.393Z,618.75
2018-08-09T06:02:43.382Z,630.00
2018-08-09T06:03:43.366Z,641.25
2018-08-09T06:04:43.349Z,624.38
2018-08-09T06:05:43.400Z,725.63
2018-08-09T06:06:43.318Z,1018.13
2018-08-09T06:07:43.302Z,1068.75
2018-08-09T06:08:43.290Z,1051.88
2018-08-09T06:09:43.271Z,1018.13
2018-08-09T06:10:43.257Z,1006.88
2018-08-09T06:11:43.240Z,995.63
2018-08-09T06:12:43.225Z,1012.50
2018-08-09T06:13:43.210Z,961.88
2018-08-09T06:14:43.195Z,1068.75
2018-08-09T06:15:43.183Z,1068.75
2018-08-09T06:16:43.170Z,1096.88
2018-08-09T06:17:43.153Z,1119.38
2018-08-09T06:18:43.156Z,1147.50
2018-08-09T06:19:43.125Z,1153.13
2018-08-09T06:20:43.111Z,1175.63
2018-08-09T06:21:43.096Z,1203.75
2018-08-09T06:22:43.083Z,1220.63
2018-08-09T06:23:43.070Z,1226.25
2018-08-09T06:24:43.056Z,1226.25
2018-08-09T06:25:43.065Z,1220.63
2018-08-09T06:26:43.116Z,1215.00
2018-08-09T06:27:43.017Z,1203.75
2018-08-09T06:28:43.048Z,1231.88
2018-08-09T06:29:42.989Z,1260.00
2018-08-09T06:30:43.000Z,1276.88
2018-08-09T06:31:42.965Z,1265.63
2018-08-09T06:32:42.951Z,1293.75
2018-08-09T06:33:42.939Z,1293.75
2018-08-09T06:34:42.926Z,1276.88
2018-08-09T06:35:42.913Z,1248.75
2018-08-09T06:36:42.899Z,1271.25
2018-08-09T06:37:42.889Z,1271.25
2018-08-09T06:38:42.875Z,1299.38
2018-08-09T06:39:42.863Z,1355.63
2018-08-09T06:40:42.850Z,1395.00
2018-08-09T06:41:42.838Z,1434.38
2018-08-09T06:42:42.828Z,1440.00
2018-08-09T06:43:42.813Z,1456.88
2018-08-09T06:44:42.800Z,1428.75
2018-08-09T06:45:42.789Z,1423.13
2018-08-09T06:46:42.776Z,1428.75
2018-08-09T06:47:42.798Z,1445.63
2018-08-09T06:48:42.750Z,1456.88
2018-08-09T06:49:42.740Z,1473.75
2018-08-09T06:50:42.728Z,1496.25
2018-08-09T06:51:42.715Z,1513.13
2018-08-09T06:52:42.705Z,1541.25
2018-08-09T06:53:42.692Z,1546.88
2018-08-09T06:54:42.679Z,1541.25
2018-08-09T06:55:42.668Z,1552.50
2018-08-09T06:56:42.655Z,1546.88
2018-08-09T06:57:42.643Z,1546.88
2018-08-09T06:58:42.632Z,1563.75
2018-08-09T06:59:42.619Z,1597.50
2018-08-09T07:00:42.608Z,1597.50
2018-08-09T07:01:42.596Z,1608.75
2018-08-09T07:02:42.583Z,1636.88
2018-08-09T07:03:42.576Z,1642.50
2018-08-09T07:04:42.560Z,1665.00
2018-08-09T07:05:42.567Z,1681.88
2018-08-09T07:06:42.567Z,1670.63
2018-08-09T07:07:42.574Z,1676.25
2018-08-09T07:08:42.539Z,1676.25
2018-08-09T07:09:42.503Z,1693.13
2018-08-09T07:10:42.490Z,1738.13
2018-08-09T07:11:42.482Z,1800.00
2018-08-09T07:12:42.529Z,1440.00
2018-08-09T07:13:42.457Z,1215.00
2018-08-09T07:14:42.450Z,1153.13
2018-08-09T07:15:42.436Z,1186.88
2018-08-09T07:16:42.422Z,1260.00
2018-08-09T07:17:42.413Z,1395.00
2018-08-09T07:18:42.402Z,1485.00
2018-08-09T07:19:42.389Z,1434.38
2018-08-09T07:20:42.377Z,1361.25
2018-08-09T07:21:42.367Z,1473.75
2018-08-09T07:22:42.354Z,1704.38
2018-08-09T07:23:42.346Z,1895.63
2018-08-09T07:24:42.330Z,1974.38
2018-08-09T07:25:42.319Z,1968.75
2018-08-09T07:26:42.307Z,1946.25
2018-08-09T07:27:42.294Z,1946.25
2018-08-09T07:28:42.284Z,1946.25
2018-08-09T07:29:42.277Z,1923.75
2018-08-09T07:30:42.259Z,1918.13
2018-08-09T07:31:42.252Z,1918.13
2018-08-09T07:32:42.236Z,1918.13
2018-08-09T07:33:42.279Z,1957.50
2018-08-09T07:34:42.245Z,1957.50
2018-08-09T07:35:42.212Z,1974.38
2018-08-09T07:36:42.197Z,1980.00
2018-08-09T07:37:42.181Z,1985.63
2018-08-09T07:38:42.168Z,1991.25
2018-08-09T07:39:42.193Z,2030.63
2018-08-09T07:40:42.151Z,2053.13
2018-08-09T07:41:42.136Z,2086.88
2018-08-09T07:42:42.126Z,2081.25
2018-08-09T07:43:42.114Z,2064.38
2018-08-09T07:44:42.102Z,2081.25
2018-08-09T07:45:42.093Z,2030.63
2018-08-09T07:46:42.084Z,1923.75
2018-08-09T07:47:42.079Z,1923.75
2018-08-09T07:48:42.069Z,1642.50
2018-08-09T07:49:42.051Z,2120.63
2018-08-09T07:50:42.041Z,1659.38
2018-08-09T07:51:42.031Z,2160.00
2018-08-09T07:52:42.022Z,2126.25
2018-08-09T07:53:42.010Z,2131.88
2018-08-09T07:54:42.001Z,2148.75
2018-08-09T07:55:41.991Z,2165.63
2018-08-09T07:56:41.980Z,2188.13
2018-08-09T07:57:41.969Z,2221.88
2018-08-09T07:58:41.959Z,2261.25
2018-08-09T07:59:41.949Z,2289.38
2018-08-09T08:00:41.942Z,2311.88
2018-08-09T08:01:41.928Z,2311.88
2018-08-09T08:02:41.919Z,2317.50
2018-08-09T08:03:41.910Z,2340.00
2018-08-09T08:04:41.899Z,2351.25
2018-08-09T08:05:41.889Z,2340.00
2018-08-09T08:06:41.879Z,2334.38
2018-08-09T08:07:41.868Z,2345.63
2018-08-09T08:08:41.858Z,2368.13
2018-08-09T08:09:41.847Z,2368.13
2018-08-09T08:10:41.864Z,2368.13
2018-08-09T08:11:41.828Z,2390.63
2018-08-09T08:12:41.844Z,2418.75
2018-08-09T08:13:41.807Z,2435.63
2018-08-09T08:14:41.798Z,2452.50
2018-08-09T08:15:41.786Z,2463.75
2018-08-09T08:16:41.775Z,2508.75
2018-08-09T08:17:44.046Z,2542.50
2018-08-09T08:18:43.805Z,2559.38
2018-08-09T08:19:42.591Z,2576.25
2018-08-09T08:20:42.024Z,2576.25
2018-08-09T08:21:42.429Z,2469.38
2018-08-09T08:22:41.717Z,2576.25
2018-08-09T08:23:41.709Z,2385.00
2018-08-09T08:24:41.700Z,2576.25
2018-08-09T08:25:41.689Z,2604.38
2018-08-09T08:26:41.696Z,2621.25
2018-08-09T08:27:41.674Z,2643.75
2018-08-09T08:28:41.660Z,2649.38
2018-08-09T08:29:41.650Z,2632.50
2018-08-09T08:30:41.641Z,2621.25
2018-08-09T08:31:41.632Z,2536.88
2018-08-09T08:32:41.623Z,2598.75
2018-08-09T08:33:41.614Z,2626.88
2018-08-09T08:34:41.689Z,2643.75
2018-08-09T08:35:41.595Z,2688.75
2018-08-09T08:36:41.586Z,2722.50
2018-08-09T08:37:41.577Z,2728.13
2018-08-09T08:38:41.567Z,2750.63
2018-08-09T08:39:41.557Z,2767.50
2018-08-09T08:40:41.547Z,2773.13
2018-08-09T08:41:41.679Z,2750.63
2018-08-09T08:42:41.529Z,2722.50
2018-08-09T08:43:41.520Z,2683.13
2018-08-09T08:44:41.510Z,2626.88
2018-08-09T08:45:41.501Z,2570.63
2018-08-09T08:46:41.493Z,2565.00
2018-08-09T08:47:41.484Z,2576.25
2018-08-09T08:48:41.474Z,2643.75
2018-08-09T08:49:41.466Z,2683.13
2018-08-09T08:50:41.457Z,2733.75
2018-08-09T08:51:41.448Z,2790.00
2018-08-09T08:52:41.438Z,2823.75
2018-08-09T08:53:41.430Z,2812.50
2018-08-09T08:54:41.420Z,2818.13
2018-08-09T08:55:41.420Z,2812.50
2018-08-09T08:56:41.403Z,2851.88
2018-08-09T08:57:41.395Z,2874.38
2018-08-09T08:58:41.387Z,2896.88
2018-08-09T08:59:41.376Z,2908.13
2018-08-09T09:00:41.366Z,2941.88
2018-08-09T09:01:41.358Z,2930.63
2018-08-09T09:02:41.402Z,2919.38
2018-08-09T09:03:41.339Z,2930.63
2018-08-09T09:04:41.332Z,2896.88
2018-08-09T09:05:41.321Z,2857.50
2018-08-09T09:06:41.344Z,2846.25
2018-08-09T09:07:41.304Z,2846.25
2018-08-09T09:08:41.292Z,2851.88
2018-08-09T09:09:41.283Z,2812.50
2018-08-09T09:10:41.276Z,2784.38
2018-08-09T09:11:41.266Z,2806.88
2018-08-09T09:12:41.256Z,2857.50
2018-08-09T09:13:41.262Z,2891.25
2018-08-09T09:14:41.241Z,2930.63
2018-08-09T09:15:41.228Z,2953.13
2018-08-09T09:16:41.221Z,2970.00
2018-08-09T09:17:41.210Z,2998.13
2018-08-09T09:18:41.201Z,3009.38
2018-08-09T09:19:41.192Z,3037.50
2018-08-09T09:20:41.183Z,3048.75
2018-08-09T09:21:41.173Z,3076.88
2018-08-09T09:22:41.164Z,3082.50
2018-08-09T09:23:41.155Z,3082.50
2018-08-09T09:24:41.147Z,3082.50
2018-08-09T09:25:41.138Z,3065.63
2018-08-09T09:26:41.130Z,3105.00
2018-08-09T09:27:41.120Z,3127.50
2018-08-09T09:28:41.110Z,3116.25
2018-08-09T09:29:41.101Z,3110.63
2018-08-09T09:30:41.094Z,3121.88
2018-08-09T09:31:41.085Z,3110.63
2018-08-09T09:32:41.075Z,3060.00
2018-08-09T09:33:41.069Z,3054.38
2018-08-09T09:34:41.056Z,3054.38
2018-08-09T09:35:41.051Z,3065.63
2018-08-09T09:36:41.039Z,3065.63
2018-08-09T09:37:41.029Z,3060.00
2018-08-09T09:38:41.024Z,3054.38
2018-08-09T09:39:41.012Z,3037.50
2018-08-09T09:40:41.004Z,3020.63
2018-08-09T09:41:40.996Z,3009.38
2018-08-09T09:42:41.032Z,3048.75
2018-08-09T09:43:40.977Z,3048.75
2018-08-09T09:44:40.968Z,3071.25
2018-08-09T09:45:40.960Z,3065.63
2018-08-09T09:46:40.952Z,3054.38
2018-08-09T09:47:40.943Z,3110.63
2018-08-09T09:48:40.935Z,3127.50
2018-08-09T09:49:40.948Z,3166.88
2018-08-09T09:50:40.918Z,3161.25
2018-08-09T09:51:40.910Z,3166.88
2018-08-09T09:52:40.902Z,3195.00
2018-08-09T09:53:40.891Z,3189.38
2018-08-09T09:54:40.883Z,3195.00
2018-08-09T09:55:40.878Z,3161.25
2018-08-09T09:56:40.866Z,3166.88
2018-08-09T09:57:40.858Z,3133.13
2018-08-09T09:58:40.849Z,3105.00
2018-08-09T09:59:40.841Z,3071.25
2018-08-09T10:00:40.832Z,3071.25
2018-08-09T10:01:40.858Z,3065.63
2018-08-09T10:02:40.816Z,3088.13
2018-08-09T10:03:40.807Z,3110.63
2018-08-09T10:04:40.798Z,3144.38
2018-08-09T10:05:40.790Z,3195.00
2018-08-09T10:06:40.781Z,3217.50
2018-08-09T10:07:40.773Z,3217.50
2018-08-09T10:08:40.766Z,3195.00
2018-08-09T10:09:40.757Z,3183.75
2018-08-09T10:10:40.749Z,3138.75
2018-08-09T10:11:40.744Z,3127.50
2018-08-09T10:12:40.778Z,3105.00
2018-08-09T10:13:40.725Z,3127.50
2018-08-09T10:14:40.738Z,3183.75
2018-08-09T10:15:40.707Z,3133.13
2018-08-09T10:16:40.700Z,2677.50
2018-08-09T10:17:40.690Z,2390.63
2018-08-09T10:18:40.682Z,3324.38
2018-08-09T10:19:40.707Z,3431.25
2018-08-09T10:20:40.663Z,3009.38
2018-08-09T10:21:40.659Z,2818.13
2018-08-09T10:22:40.647Z,3560.63
2018-08-09T10:23:40.641Z,3555.00
2018-08-09T10:24:40.632Z,3594.38
2018-08-09T10:25:40.624Z,3560.63
2018-08-09T10:26:40.614Z,3105.00
2018-08-09T10:27:40.610Z,2385.00
2018-08-09T10:28:40.597Z,3358.13
2018-08-09T10:29:40.590Z,3493.13
2018-08-09T10:30:40.581Z,3183.75
2018-08-09T10:31:40.574Z,2812.50
2018-08-09T10:32:40.564Z,3256.88
2018-08-09T10:33:40.556Z,3397.50
2018-08-09T10:34:40.549Z,3408.75
2018-08-09T10:35:40.542Z,3403.13
2018-08-09T10:36:40.534Z,3448.13
2018-08-09T10:37:40.530Z,3425.63
2018-08-09T10:38:40.517Z,2795.63
2018-08-09T10:39:40.508Z,2671.88
2018-08-09T10:40:40.499Z,2491.88
2018-08-09T10:41:40.494Z,3324.38
2018-08-09T10:42:40.548Z,3375.00
2018-08-09T10:43:40.476Z,3397.50
2018-08-09T10:44:40.467Z,3324.38
2018-08-09T10:45:40.459Z,3240.00
2018-08-09T10:46:40.451Z,2880.00
2018-08-09T10:47:40.444Z,3335.63
2018-08-09T10:48:40.434Z,3386.25
2018-08-09T10:49:40.432Z,2295.00
2018-08-09T10:50:40.420Z,3116.25
2018-08-09T10:51:40.411Z,3015.00
2018-08-09T10:52:40.402Z,3093.75
2018-08-09T10:53:40.394Z,2716.88
2018-08-09T10:54:40.384Z,2396.25
2018-08-09T10:55:40.403Z,2446.88
2018-08-09T10:56:40.368Z,2323.13
2018-08-09T10:57:40.360Z,2356.88
2018-08-09T10:58:40.352Z,2851.88
2018-08-09T10:59:40.343Z,3493.13
2018-08-09T11:00:40.334Z,3324.38
2018-08-09T11:01:40.368Z,3037.50
2018-08-09T11:02:40.318Z,3290.63
2018-08-09T11:03:40.309Z,2328.75
2018-08-09T11:04:40.301Z,2086.88
2018-08-09T11:05:40.292Z,2092.50
2018-08-09T11:06:40.285Z,2210.63
2018-08-09T11:07:40.276Z,2120.63
2018-08-09T11:08:40.327Z,1670.63
2018-08-09T11:09:40.257Z,1496.25
2018-08-09T11:10:40.256Z,1496.25
2018-08-09T11:11:40.241Z,1586.25
2018-08-09T11:12:40.229Z,1794.38
2018-08-09T11:13:40.221Z,1940.63
2018-08-09T11:14:40.213Z,2441.25
2018-08-09T11:15:40.203Z,3015.00
2018-08-09T11:16:40.193Z,3245.63
2018-08-09T11:17:40.185Z,2610.00
2018-08-09T11:18:40.176Z,3116.25
2018-08-09T11:19:40.173Z,2745.00
2018-08-09T11:20:40.157Z,2283.75
2018-08-09T11:21:40.148Z,2148.75
2018-08-09T11:22:40.139Z,3189.38
2018-08-09T11:23:40.155Z,3667.50
2018-08-09T11:24:40.120Z,3150.00
2018-08-09T11:25:40.112Z,3538.13
2018-08-09T11:26:40.104Z,3335.63
2018-08-09T11:27:40.093Z,3420.00
2018-08-09T11:28:40.084Z,2885.63
2018-08-09T11:29:40.079Z,3251.25
2018-08-09T11:30:40.066Z,2835.00
2018-08-09T11:31:40.058Z,3279.38
2018-08-09T11:32:40.047Z,3363.75
2018-08-09T11:33:40.038Z,3510.00
2018-08-09T11:34:40.034Z,3375.00
2018-08-09T11:35:40.033Z,3380.63
2018-08-09T11:36:40.014Z,3380.63
2018-08-09T11:37:40.004Z,3391.88
2018-08-09T11:38:39.997Z,3375.00
2018-08-09T11:39:39.986Z,3037.50
2018-08-09T11:40:39.978Z,2266.88
2018-08-09T11:41:39.969Z,2424.38
2018-08-09T11:42:39.961Z,3465.00
2018-08-09T11:43:39.954Z,3555.00
2018-08-09T11:44:39.941Z,3549.38
2018-08-09T11:45:40.219Z,3510.00
2018-08-09T11:46:39.925Z,3487.50
2018-08-09T11:47:39.917Z,3521.25
2018-08-09T11:48:39.907Z,3465.00
2018-08-09T11:49:39.900Z,3532.50
2018-08-09T11:50:39.890Z,2941.88
2018-08-09T11:51:39.882Z,3262.50
2018-08-09T11:52:39.874Z,2688.75
2018-08-09T11:53:39.866Z,2919.38
2018-08-09T11:54:39.858Z,3408.75
2018-08-09T11:55:39.849Z,2688.75
2018-08-09T11:56:39.891Z,2874.38
2018-08-09T11:57:39.832Z,2604.38
2018-08-09T11:58:39.824Z,2390.63
2018-08-09T11:59:39.815Z,2947.50
2018-08-09T12:00:39.806Z,2919.38
2018-08-09T12:01:39.882Z,1974.38
2018-08-09T12:02:39.789Z,1878.75
2018-08-09T12:03:39.780Z,1732.50
2018-08-09T12:04:39.801Z,1715.63
2018-08-09T12:05:39.762Z,1721.25
2018-08-09T12:06:39.757Z,1670.63
2018-08-09T12:07:39.746Z,1715.63
2018-08-09T12:08:39.735Z,1715.63
2018-08-09T12:09:39.726Z,1783.13
2018-08-09T12:10:39.717Z,2531.25
2018-08-09T12:11:39.708Z,3532.50
2018-08-09T12:12:39.699Z,3200.63
2018-08-09T12:13:39.800Z,3223.13
2018-08-09T12:14:39.679Z,2379.38
2018-08-09T12:15:39.671Z,3352.50
2018-08-09T12:16:39.663Z,3425.63
2018-08-09T12:17:39.651Z,3470.63
2018-08-09T12:18:39.642Z,3481.88
2018-08-09T12:19:39.634Z,3386.25
2018-08-09T12:20:39.635Z,2272.50
2018-08-09T12:21:39.615Z,2334.38
2018-08-09T12:22:39.609Z,2120.63
2018-08-09T12:23:39.598Z,2655.00
2018-08-09T12:24:39.589Z,2925.00
2018-08-09T12:25:39.580Z,3082.50
2018-08-09T12:26:39.578Z,2565.00
2018-08-09T12:27:39.564Z,3105.00
2018-08-09T12:28:39.555Z,3493.13
2018-08-09T12:29:39.544Z,3718.13
2018-08-09T12:30:39.536Z,3566.25
2018-08-09T12:31:39.529Z,2058.75